• Join FlightAware (Why Join?)
  • Login
  • US Flag 
05:30AM EDT


 

Airport Tracker/Info


-or-


 

Live Flight TrackerFlight Track Log ✈ NGF0DR ✈ 08-Oct-2013 ✈ KLUK - KHLG

Flight Track Log - Related Links

Times and Time Zones

All times are in EDT time to prevent confusion due to time zone crossing. See the NGF0DR flight status page for this flight to view local times or setup timezone preferences in your user account.

Time Position Orientation Groundspeed Altitude Reporting Facility
EDT Latitude Longitude Course Direction KTS MPH feet Rate Location/Type
10:17AM 39.0833 -84.4167 201° Southwest 101 116 1,000  Level Cincinnati TRACON
10:18AM 39.0500 -84.4333 201° Southwest 133 153 2,000 720 Climbing Cincinnati TRACON
10:19AM 39.0167 -84.4333 180° South 159 183 2,500 300 Climbing Cincinnati TRACON
10:20AM 39.0167 -84.3833 90° East 165 190 2,600 360 Climbing Cincinnati TRACON
10:21AM 39.0289 -84.3686 43° Northeast 162 186 3,100 840 Climbing Indianapolis Center
10:22AM 39.0397 -84.3239 73° East 141 162 4,000 420 Climbing Indianapolis Center
10:23AM 39.0578 -84.2614 70° East 146 168 4,000  Level Indianapolis Center
10:24AM 39.0739 -84.2064 69° East 156 180 4,000  Level Indianapolis Center
10:24AM 39.0881 -84.1578 69° East 163 188 4,100  Climbing Indianapolis Center
10:25AM 39.0906 -84.1525 59° Northeast 161 185 4,000 900 Descending Indianapolis Center
10:26AM 39.1033 -84.1028 72° East 156 180 5,200 1,140 Climbing Indianapolis Center
10:27AM 39.1164 -84.0683 64° Northeast 120 138 6,200 960 Climbing Indianapolis Center
10:27AM 39.1178 -84.0633 70° East 133 153 6,200 900 Level Indianapolis Center
10:28AM 39.1306 -84.0139 72° East 132 152 7,300 840 Climbing Indianapolis Center
10:28AM 39.1306 -84.0194 270° West 131 151 7,100 720 Descending Indianapolis Center
10:29AM 39.1428 -83.9783 69° East 139 160 7,900 840 Climbing Indianapolis Center
10:29AM 39.1475 -83.9633 68° East 139 160 8,000 960 Climbing Indianapolis Center
10:30AM 39.1592 -83.9217 70° East 148 170 9,000 840 Climbing Indianapolis Center
10:30AM 39.1617 -83.9144 66° East 145 167 8,900 -120 Descending Indianapolis Center
10:31AM 39.1775 -83.8586 70° East 164 189 8,900  Level Indianapolis Center
10:32AM 39.2097 -83.8086 50° Northeast 183 211 9,000 60 Climbing Indianapolis Center
10:33AM 39.2364 -83.7672 50° Northeast 188 216 9,100  Climbing Indianapolis Center
10:33AM 39.2428 -83.7578 49° Northeast 183 211 9,000  Descending Indianapolis Center
10:34AM 39.2733 -83.7142 48° Northeast 186 214 9,100  Climbing Indianapolis Center
10:34AM 39.2847 -83.6986 47° Northeast 187 215 9,000  Descending Indianapolis Center
10:35AM 39.3114 -83.6717 38° Northeast 185 213 9,100  Climbing Indianapolis Center
10:35AM 39.3244 -83.6564 42° Northeast 186 214 9,000  Descending Indianapolis Center
10:36AM 39.3494 -83.6269 42° Northeast 185 213 9,100  Climbing Indianapolis Center
10:36AM 39.3625 -83.6119 42° Northeast 185 213 9,000 -120 Descending Indianapolis Center
10:37AM 39.3900 -83.5794 42° Northeast 185 213 9,000  Level Indianapolis Center
10:37AM 39.3978 -83.5656 54° Northeast 185 213 9,000  Level Indianapolis Center
10:38AM 39.4053 -83.5117 80° East 184 212 9,000  Level Indianapolis Center
10:38AM 39.4089 -83.5000 68° East 185 213 9,000  Level Indianapolis Center
10:39AM 39.4200 -83.4489 74° East 183 211 9,000  Level Indianapolis Center
10:39AM 39.4228 -83.4361 74° East 185 213 9,000  Level Indianapolis Center
10:40AM 39.4372 -83.3814 71° East 184 212 9,000  Level Indianapolis Center
10:40AM 39.4428 -83.3614 70° East 185 213 9,000  Level Indianapolis Center
10:41AM 39.4533 -83.3269 68° East 185 213 9,000  Level Indianapolis Center
10:41AM 39.4608 -83.3000 70° East 184 212 9,000  Level Indianapolis Center
10:42AM 39.4722 -83.2622 69° East 186 214 9,000  Level Indianapolis Center
10:42AM 39.4778 -83.2381 73° East 185 213 9,000  Level Indianapolis Center
10:43AM 39.4889 -83.2000 69° East 184 212 9,000  Level Indianapolis Center
10:43AM 39.4956 -83.1756 71° East 185 213 9,000  Level Indianapolis Center
10:44AM 39.5075 -83.1378 68° East 184 212 9,000  Level Indianapolis Center
10:44AM 39.5136 -83.1133 72° East 185 213 9,000  Level Indianapolis Center
10:45AM 39.5242 -83.0756 70° East 185 213 9,000  Level Indianapolis Center
10:45AM 39.5342 -83.0392 70° East 184 212 9,000  Level Indianapolis Center
10:46AM 39.5431 -83.0081 70° East 186 214 9,000  Level Indianapolis Center
10:46AM 39.5514 -82.9764 71° East 185 213 9,000  Level Indianapolis Center
10:47AM 39.5597 -82.9456 71° East 185 213 9,000  Level Indianapolis Center
10:47AM 39.5694 -82.9144 68° East 185 213 9,000  Level Indianapolis Center
10:48AM 39.5756 -82.8883 73° East 186 214 9,000  Level Indianapolis Center
10:48AM 39.5869 -82.8517 68° East 185 213 9,000  Level Indianapolis Center
10:49AM 39.5975 -82.8131 70° East 185 213 9,000  Level Indianapolis Center
10:49AM 39.6039 -82.7892 71° East 185 213 9,000  Level Indianapolis Center
10:50AM 39.6158 -82.7508 68° East 186 214 9,000  Level Indianapolis Center
10:51AM 39.6219 -82.7267 72° East 186 214 9,000  Level Indianapolis Center
10:51AM 39.6325 -82.6856 72° East 188 216 9,000  Level Indianapolis Center
10:52AM 39.6422 -82.6517 70° East 183 211 9,000  Level Indianapolis Center
10:52AM 39.6478 -82.6336 68° East 186 214 9,000  Level Indianapolis Center
10:53AM 39.6600 -82.5883 71° East 186 214 9,000  Level Indianapolis Center
10:53AM 39.6672 -82.5606 71° East 188 216 9,000  Level Indianapolis Center
10:54AM 39.6772 -82.5250 70° East 186 214 9,000  Level Indianapolis Center
10:54AM 39.6831 -82.5031 71° East 185 213 9,000  Level Indianapolis Center
10:55AM 39.6944 -82.4619 70° East 186 214 9,000  Level Indianapolis Center
10:55AM 39.7047 -82.4250 70° East 185 213 9,000  Level Indianapolis Center
10:56AM 39.7114 -82.3994 71° East 185 213 9,000  Level Indianapolis Center
10:57AM 39.7289 -82.3372 70° East 184 212 9,000  Level Indianapolis Center
10:58AM 39.7489 -82.2622 71° East 185 213 9,000  Level Indianapolis Center
10:59AM 39.7669 -82.1978 70° East 189 217 9,000  Level Indianapolis Center
11:00AM 39.7833 -82.1353 71° East 185 213 9,000  Level Indianapolis Center
11:01AM 39.8006 -82.0708 71° East 186 214 9,100  Climbing Indianapolis Center
11:02AM 39.8175 -82.0072 71° East 187 215 9,100  Level Indianapolis Center
11:03AM 39.8350 -81.9439 70° East 187 215 9,100  Level Indianapolis Center
11:04AM 39.8558 -81.8681 70° East 186 214 9,100  Level Indianapolis Center
11:05AM 39.8725 -81.8039 71° East 187 215 9,100  Level Indianapolis Center
11:06AM 39.8894 -81.7389 71° East 190 219 9,100  Level Indianapolis Center
11:07AM 39.9072 -81.6739 70° East 190 219 9,100  Level Indianapolis Center
11:08AM 39.9247 -81.6078 71° East 192 221 9,100  Level Indianapolis Center
11:09AM 39.9417 -81.5408 72° East 195 224 9,100 -300 Level Indianapolis Center
11:10AM 39.9650 -81.4592 70° East 200 230 8,600 -480 Descending Indianapolis Center
11:11AM 39.9797 -81.3967 73° East 202 232 8,200 -420 Descending Indianapolis Center
11:12AM 40.0008 -81.3161 71° East 201 231 7,800 -540 Descending Indianapolis Center
11:13AM 40.0181 -81.2469 72° East 200 230 7,200 -660 Descending Indianapolis Center
11:14AM 40.0358 -81.1819 70° East 193 222 6,500 -720 Descending Indianapolis Center
11:15AM 40.0525 -81.1142 72° East 194 223 5,800 -720 Descending Indianapolis Center
11:16AM 40.0694 -81.0506 71° East 190 219 5,100 -420 Descending Indianapolis Center
11:17AM 40.0875 -80.9864 70° East 188 216 5,000 -180 Descending Indianapolis Center
11:18AM 40.1022 -80.9269 72° East 178 205 4,800 -660 Descending Indianapolis Center
11:20AM 40.1269 -80.8364 70° East 148 170 3,200 -660 Descending Cleveland Center
11:21AM 40.1386 -80.7839 74° East 149 171 2,900 -300 Descending Cleveland Center
11:22AM 40.1447 -80.7386 80° East 140 161 2,700 -420 Descending Cleveland Center
11:23AM 40.1475 -80.6972 85° East 126 145 2,100 -540 Descending Cleveland Center
11:24AM 40.1558 -80.6564 75° East 109 125 1,600 -540 Descending Cleveland Center